Time;durP1;ratioP1;P1;durP2;ratioP2;P2;SDS_P1;SDS_P2;PMS_P1;PMS_P2;Temp;Humidity;BMP_temperature;BMP_pressure;BME280_temperature;BME280_humidity;BME280_pressure;Samples;Min_cycle;Max_cycle;Signal;HPM_P1;HPM_P2
2023/05/24 00:01:57;;;;;;;21.40;6.75;;;7.50;99.90;;;;;;7371744;19;20854;-68
2023/05/24 00:04:23;;;;;;;18.40;6.22;;;7.50;99.90;;;;;;7372377;19;20011;-68
2023/05/24 00:06:53;;;;;;;22.35;6.88;;;7.50;99.90;;;;;;7371772;19;20030;-68
2023/05/24 00:09:19;;;;;;;21.67;6.97;;;7.50;99.90;;;;;;7367754;19;20604;-67
2023/05/24 00:11:46;;;;;;;23.77;8.50;;;7.50;99.90;;;;;;7363296;19;20018;-67
2023/05/24 00:14:12;;;;;;;21.42;6.50;;;7.50;99.90;;;;;;7357303;19;21471;-59
2023/05/24 00:16:39;;;;;;;25.95;7.03;;;7.50;99.90;;;;;;7354033;19;20025;-59
2023/05/24 00:19:05;;;;;;;19.50;6.65;;;7.50;99.90;;;;;;7354891;19;20017;-59
2023/05/24 00:21:34;;;;;;;22.95;7.28;;;7.50;99.90;;;;;;7364262;19;20015;-59
2023/05/24 00:24:00;;;;;;;21.20;6.47;;;7.60;99.90;;;;;;7366907;19;20050;-60
2023/05/24 00:26:27;;;;;;;26.13;7.60;;;7.60;99.90;;;;;;7366389;19;20501;-67
2023/05/24 00:28:56;;;;;;;23.85;7.28;;;7.60;99.90;;;;;;7371158;19;20097;-68
2023/05/24 00:31:22;;;;;;;25.45;8.32;;;7.70;99.90;;;;;;7372162;19;20022;-67
2023/05/24 00:33:48;;;;;;;25.00;7.30;;;7.70;99.90;;;;;;7367026;19;20051;-60
2023/05/24 00:36:15;;;;;;;23.92;7.75;;;7.80;99.90;;;;;;7369540;19;20390;-59
2023/05/24 00:38:41;;;;;;;30.25;7.63;;;7.80;99.90;;;;;;7356639;19;20025;-59
2023/05/24 00:41:07;;;;;;;26.48;8.70;;;7.90;99.90;;;;;;7363452;19;20033;-59
2023/05/24 00:43:35;;;;;;;26.85;8.52;;;7.90;99.90;;;;;;7359880;19;20816;-59
2023/05/24 00:46:19;;;;;;;24.80;7.82;;;8.00;99.90;;;;;;7362561;19;20617;-67
2023/05/24 00:48:45;;;;;;;25.95;8.30;;;8.10;99.90;;;;;;7363802;19;20025;-68
2023/05/24 00:51:12;;;;;;;25.38;7.38;;;8.10;99.90;;;;;;7366858;19;20014;-68
2023/05/24 00:53:40;;;;;;;25.90;7.05;;;8.20;99.90;;;;;;7370101;19;20047;-68
2023/05/24 00:56:07;;;;;;;28.73;7.00;;;8.20;99.90;;;;;;7368809;19;20477;-68
2023/05/24 00:58:33;;;;;;;21.77;8.63;;;8.20;99.90;;;;;;7362569;19;20528;-58
2023/05/24 01:01:02;;;;;;;26.17;7.70;;;8.10;99.90;;;;;;7367231;19;20015;-59
2023/05/24 01:03:29;;;;;;;30.15;9.13;;;8.10;99.90;;;;;;7361655;19;20025;-59
2023/05/24 01:06:04;;;;;;;25.67;8.15;;;8.10;99.90;;;;;;7365419;19;20022;-60
2023/05/24 01:09:08;;;;;;;28.42;7.82;;;8.00;99.90;;;;;;7363762;19;20026;-60
2023/05/24 01:11:35;;;;;;;23.80;7.03;;;7.90;99.90;;;;;;7363575;19;20022;-60
2023/05/24 01:14:32;;;;;;;26.17;9.00;;;7.90;99.90;;;;;;7364614;19;20063;-60
2023/05/24 01:17:08;;;;;;;23.45;6.60;;;7.90;99.90;;;;;;7360437;19;20399;-68
2023/05/24 01:19:52;;;;;;;29.50;8.65;;;7.90;99.90;;;;;;7363730;19;20034;-67
2023/05/24 01:22:54;;;;;;;25.65;8.02;;;7.80;99.90;;;;;;7370953;19;20053;-67
2023/05/24 01:25:45;;;;;;;24.73;8.57;;;7.80;99.90;;;;;;7373049;19;20373;-67
2023/05/24 01:28:17;;;;;;;27.17;8.43;;;7.80;99.90;;;;;;7370326;19;20534;-68
2023/05/24 01:30:44;;;;;;;28.52;7.78;;;7.80;99.90;;;;;;7368620;19;20050;-68
2023/05/24 01:33:11;;;;;;;30.75;8.07;;;7.80;99.90;;;;;;7368100;19;20018;-67
2023/05/24 01:35:41;;;;;;;32.25;8.57;;;7.80;99.90;;;;;;7368157;19;20022;-67
2023/05/24 01:38:09;;;;;;;25.50;7.50;;;7.80;99.90;;;;;;7363075;19;20054;-68
2023/05/24 01:40:37;;;;;;;32.13;8.15;;;7.70;99.90;;;;;;7364526;19;20018;-67
2023/05/24 01:43:15;;;;;;;33.55;8.18;;;7.70;99.90;;;;;;7368524;19;20018;-67
2023/05/24 01:46:00;;;;;;;26.20;7.38;;;7.70;99.90;;;;;;7366302;19;20034;-67
2023/05/24 01:48:44;;;;;;;25.73;8.23;;;7.70;99.90;;;;;;7366818;19;20022;-67
2023/05/24 01:51:17;;;;;;;26.30;7.88;;;7.60;99.90;;;;;;7371446;19;20018;-67
2023/05/24 01:53:46;;;;;;;31.33;8.93;;;7.70;99.90;;;;;;7370904;19;20018;-67
2023/05/24 01:56:14;;;;;;;27.05;7.90;;;7.70;99.90;;;;;;7371484;19;20015;-67
2023/05/24 01:58:44;;;;;;;31.17;8.77;;;7.70;99.90;;;;;;7367248;19;20334;-59
2023/05/24 02:01:12;;;;;;;32.75;10.80;;;7.70;99.90;;;;;;7369621;19;20022;-59
2023/05/24 02:03:39;;;;;;;44.25;11.48;;;7.70;99.90;;;;;;7366500;19;20764;-59
2023/05/24 02:06:06;;;;;;;31.42;9.18;;;7.70;99.90;;;;;;7367757;19;20022;-59
2023/05/24 02:08:33;;;;;;;29.77;9.20;;;7.70;99.90;;;;;;7361866;19;20476;-58
2023/05/24 02:10:59;;;;;;;30.27;8.13;;;7.70;99.90;;;;;;7370801;19;20022;-59
2023/05/24 02:13:25;;;;;;;25.33;8.15;;;7.70;99.90;;;;;;7369342;19;20487;-59
2023/05/24 02:15:53;;;;;;;35.88;9.65;;;7.70;99.90;;;;;;7368244;19;20022;-67
2023/05/24 02:18:21;;;;;;;26.70;8.27;;;7.70;99.90;;;;;;7366713;19;20045;-59
2023/05/24 02:20:47;;;;;;;31.33;9.20;;;7.70;99.90;;;;;;7366340;19;20495;-59
2023/05/24 02:23:15;;;;;;;28.10;8.88;;;7.70;99.90;;;;;;7364609;19;20034;-68
2023/05/24 02:25:41;;;;;;;24.33;8.50;;;7.60;99.90;;;;;;7219635;19;2851533;-66
2023/05/24 02:28:08;;;;;;;40.05;9.20;;;7.60;99.90;;;;;;7367184;19;20026;-68
2023/05/24 02:30:35;;;;;;;34.78;9.05;;;7.60;99.90;;;;;;7368030;19;20017;-68
2023/05/24 02:33:01;;;;;;;32.33;8.88;;;7.60;99.90;;;;;;7367306;19;20023;-67
2023/05/24 02:35:27;;;;;;;30.63;8.52;;;7.60;99.90;;;;;;7366758;19;20071;-67
2023/05/24 02:37:53;;;;;;;31.58;8.82;;;7.70;99.90;;;;;;7363987;19;20019;-68
2023/05/24 02:40:20;;;;;;;33.70;9.50;;;7.70;99.90;;;;;;7364634;19;20979;-68
2023/05/24 02:42:46;;;;;;;27.60;8.15;;;7.80;99.90;;;;;;7365275;19;20923;-67
2023/05/24 02:45:13;;;;;;;24.85;8.40;;;7.90;99.90;;;;;;7364284;19;20486;-68
2023/05/24 02:47:39;;;;;;;30.38;8.45;;;7.90;99.90;;;;;;7364530;19;20093;-58
2023/05/24 02:50:06;;;;;;;27.27;8.95;;;7.90;99.90;;;;;;7368431;19;20022;-68
2023/05/24 02:52:32;;;;;;;32.28;9.05;;;7.90;99.90;;;;;;7366817;19;20025;-68
2023/05/24 02:54:58;;;;;;;29.10;8.40;;;7.90;99.90;;;;;;7369455;19;20022;-68
2023/05/24 02:57:28;;;;;;;27.75;7.70;;;7.90;99.90;;;;;;7367934;19;20034;-68
2023/05/24 02:59:55;;;;;;;28.80;7.68;;;7.80;99.90;;;;;;7368701;19;20026;-68
2023/05/24 03:02:21;;;;;;;28.70;7.65;;;7.80;99.90;;;;;;7368155;19;20021;-68
2023/05/24 03:04:48;;;;;;;30.27;9.00;;;7.80;99.90;;;;;;7366497;19;20037;-68
2023/05/24 03:07:14;;;;;;;29.83;8.63;;;7.90;99.90;;;;;;7366949;19;20896;-68
2023/05/24 03:09:41;;;;;;;29.75;8.38;;;7.90;99.90;;;;;;7366044;19;20014;-59
2023/05/24 03:12:11;;;;;;;35.42;9.38;;;7.90;99.90;;;;;;7369711;19;20026;-68
2023/05/24 03:14:38;;;;;;;26.63;8.07;;;7.90;99.90;;;;;;7365415;19;20026;-69
2023/05/24 03:17:04;;;;;;;28.98;9.05;;;7.90;99.90;;;;;;7367978;19;20482;-59
2023/05/24 03:19:32;;;;;;;29.88;7.60;;;7.90;99.90;;;;;;7366450;19;20093;-69
2023/05/24 03:21:59;;;;;;;27.98;8.05;;;7.90;99.90;;;;;;7366590;19;20021;-68
2023/05/24 03:24:25;;;;;;;31.27;8.63;;;7.90;99.90;;;;;;7365314;19;20397;-68
2023/05/24 03:26:52;;;;;;;28.42;8.63;;;8.00;99.90;;;;;;7361719;19;20094;-69
2023/05/24 03:29:18;;;;;;;22.25;7.47;;;8.00;99.90;;;;;;7363656;19;20022;-69
2023/05/24 03:31:46;;;;;;;24.58;8.00;;;8.00;99.90;;;;;;7359784;19;20011;-68
2023/05/24 03:34:12;;;;;;;23.08;8.15;;;8.10;99.90;;;;;;7365370;19;20019;-68
2023/05/24 03:36:39;;;;;;;32.30;8.77;;;8.10;99.90;;;;;;7360097;19;20577;-68
2023/05/24 03:39:06;;;;;;;24.27;7.82;;;8.10;99.90;;;;;;7363314;19;20018;-69
2023/05/24 03:41:46;;;;;;;21.02;7.85;;;8.10;99.90;;;;;;7361960;19;20018;-69
2023/05/24 03:44:13;;;;;;;29.50;8.20;;;8.20;99.90;;;;;;7360903;19;20026;-69
2023/05/24 03:46:39;;;;;;;26.42;8.15;;;8.20;99.90;;;;;;7362097;19;20432;-59
2023/05/24 03:49:06;;;;;;;29.88;7.85;;;8.20;99.90;;;;;;7364363;19;20022;-59
2023/05/24 03:51:33;;;;;;;22.50;8.18;;;8.20;99.90;;;;;;7365537;19;20033;-59
2023/05/24 03:53:59;;;;;;;29.08;7.93;;;8.30;99.90;;;;;;7367725;19;20570;-59
2023/05/24 03:56:26;;;;;;;25.80;8.07;;;8.30;99.90;;;;;;7365753;19;20019;-59
2023/05/24 03:58:52;;;;;;;28.63;8.57;;;8.30;99.90;;;;;;7369565;19;20018;-59
2023/05/24 04:01:18;;;;;;;21.70;7.68;;;8.40;99.90;;;;;;7365230;19;20025;-59
2023/05/24 04:03:45;;;;;;;36.97;8.63;;;8.50;99.90;;;;;;7366008;19;20022;-59
2023/05/24 04:06:12;;;;;;;26.88;8.45;;;8.50;99.90;;;;;;7364687;19;20026;-59
2023/05/24 04:08:39;;;;;;;29.77;7.25;;;8.50;99.90;;;;;;7364314;19;20029;-58
2023/05/24 04:11:05;;;;;;;26.23;8.05;;;8.50;99.90;;;;;;7366024;19;20019;-59
2023/05/24 04:13:31;;;;;;;26.13;8.05;;;8.50;99.90;;;;;;7362298;19;20022;-59
2023/05/24 04:15:58;;;;;;;22.63;7.88;;;8.60;99.90;;;;;;7364568;19;20018;-67
2023/05/24 04:18:24;;;;;;;21.05;7.40;;;8.60;99.90;;;;;;7364920;19;20018;-68
2023/05/24 04:20:51;;;;;;;25.80;8.00;;;8.60;99.90;;;;;;7362319;19;20044;-68
2023/05/24 04:23:19;;;;;;;23.00;7.47;;;8.60;99.90;;;;;;7362949;19;20945;-68
2023/05/24 04:25:46;;;;;;;23.15;7.88;;;8.70;99.90;;;;;;7361256;19;20014;-67
2023/05/24 04:28:14;;;;;;;23.58;7.15;;;8.70;99.90;;;;;;7362878;19;20601;-59
2023/05/24 04:30:40;;;;;;;21.83;7.18;;;8.70;99.90;;;;;;7365676;19;20015;-59
2023/05/24 04:33:08;;;;;;;29.15;7.95;;;8.70;99.90;;;;;;7364852;19;20029;-68
2023/05/24 04:35:34;;;;;;;23.30;7.55;;;8.70;99.90;;;;;;7360663;19;20876;-68
2023/05/24 04:38:01;;;;;;;20.35;6.57;;;8.80;99.90;;;;;;7362649;19;20049;-59
2023/05/24 04:40:27;;;;;;;27.42;7.25;;;8.80;99.90;;;;;;7362329;19;20046;-59
2023/05/24 04:42:53;;;;;;;26.77;7.63;;;8.90;99.90;;;;;;7365050;19;20033;-68
2023/05/24 04:45:20;;;;;;;25.20;7.63;;;8.90;99.90;;;;;;7359706;19;20028;-68
2023/05/24 04:47:46;;;;;;;25.02;8.07;;;9.00;99.90;;;;;;7357485;19;20026;-67
2023/05/24 04:50:13;;;;;;;28.08;6.88;;;9.00;99.90;;;;;;7357198;19;20018;-67
2023/05/24 04:52:39;;;;;;;24.25;6.38;;;9.10;99.90;;;;;;7363546;19;20901;-60
2023/05/24 04:55:06;;;;;;;20.65;6.68;;;9.20;99.90;;;;;;7362368;19;20015;-59
2023/05/24 04:57:32;;;;;;;29.67;7.72;;;9.30;99.90;;;;;;7358102;19;20122;-60
2023/05/24 04:59:58;;;;;;;24.52;7.25;;;9.40;99.90;;;;;;7375105;19;20031;-66
2023/05/24 05:02:25;;;;;;;21.70;6.95;;;9.40;99.90;;;;;;7376047;19;20019;-66
2023/05/24 05:04:52;;;;;;;24.05;7.15;;;9.50;99.90;;;;;;7370688;19;20051;-66
2023/05/24 05:07:18;;;;;;;25.40;6.45;;;9.60;99.90;;;;;;7379234;19;20931;-61
2023/05/24 05:09:47;;;;;;;22.92;6.72;;;9.60;99.90;;;;;;7369033;19;20059;-67
2023/05/24 05:12:14;;;;;;;25.20;6.72;;;9.80;99.90;;;;;;7372846;19;20117;-67
2023/05/24 05:14:40;;;;;;;21.42;6.03;;;9.80;99.90;;;;;;7365741;19;20024;-59
2023/05/24 05:17:07;;;;;;;19.02;6.20;;;9.90;99.90;;;;;;7371242;19;20025;-59
2023/05/24 05:19:33;;;;;;;21.35;6.47;;;9.90;99.90;;;;;;7369668;19;20061;-67
2023/05/24 05:21:59;;;;;;;21.88;5.82;;;10.00;99.90;;;;;;7367625;19;20019;-59
2023/05/24 05:24:26;;;;;;;26.13;6.20;;;10.20;99.90;;;;;;7368708;19;20022;-59
2023/05/24 05:26:52;;;;;;;20.48;6.88;;;10.20;99.90;;;;;;7367053;19;20098;-59
2023/05/24 05:29:18;;;;;;;16.67;6.28;;;10.20;99.90;;;;;;7368670;19;20021;-59
2023/05/24 05:31:46;;;;;;;20.27;6.40;;;10.30;99.90;;;;;;7367457;19;20019;-58
2023/05/24 05:34:13;;;;;;;26.02;6.38;;;10.30;99.90;;;;;;7372126;19;20026;-59
2023/05/24 05:36:41;;;;;;;20.42;6.57;;;10.50;99.90;;;;;;7369026;19;20790;-59
2023/05/24 05:39:10;;;;;;;23.95;6.97;;;10.70;99.90;;;;;;7373385;19;20017;-60
2023/05/24 05:41:38;;;;;;;22.50;7.32;;;10.80;99.90;;;;;;7369491;19;20120;-60
2023/05/24 05:44:05;;;;;;;23.23;5.75;;;10.80;99.90;;;;;;7371722;19;20546;-60
2023/05/24 05:46:31;;;;;;;19.38;5.93;;;10.90;99.90;;;;;;7366769;19;20050;-60
2023/05/24 05:48:58;;;;;;;19.02;5.55;;;11.00;99.90;;;;;;7372132;19;20612;-59
2023/05/24 05:51:24;;;;;;;17.13;5.18;;;11.10;99.90;;;;;;7369566;19;20023;-59
2023/05/24 05:53:50;;;;;;;23.08;6.05;;;11.20;99.90;;;;;;7372188;19;20889;-59
2023/05/24 05:56:17;;;;;;;23.75;5.90;;;11.20;99.90;;;;;;7366330;19;20521;-68
2023/05/24 05:58:43;;;;;;;20.83;6.05;;;11.30;99.90;;;;;;7368911;19;20015;-68
2023/05/24 06:01:09;;;;;;;17.63;5.57;;;11.40;99.90;;;;;;7365650;19;20022;-70
2023/05/24 06:03:36;;;;;;;21.88;7.22;;;11.80;99.90;;;;;;7366570;19;20014;-70
2023/05/24 06:06:05;;;;;;;24.08;6.40;;;12.00;99.90;;;;;;7366014;19;20014;-68
2023/05/24 06:08:33;;;;;;;21.77;6.05;;;12.40;99.90;;;;;;7363250;19;20139;-68
2023/05/24 06:11:00;;;;;;;21.98;5.57;;;12.70;99.90;;;;;;7364277;19;20026;-67
2023/05/24 06:13:27;;;;;;;19.45;5.47;;;12.60;99.90;;;;;;7368885;19;20777;-68
2023/05/24 06:15:55;;;;;;;20.55;5.65;;;12.80;99.90;;;;;;7369278;19;20014;-68
2023/05/24 06:18:22;;;;;;;16.10;4.78;;;12.90;99.90;;;;;;7364679;19;20854;-67
2023/05/24 06:20:48;;;;;;;20.98;5.80;;;13.00;99.90;;;;;;7368721;19;20018;-68
2023/05/24 06:23:15;;;;;;;20.75;5.90;;;13.10;99.90;;;;;;7368123;19;20018;-67
2023/05/24 06:25:42;;;;;;;18.40;4.70;;;13.40;99.90;;;;;;7363430;19;20018;-66
2023/05/24 06:28:09;;;;;;;22.63;5.15;;;13.30;99.90;;;;;;7370078;19;20044;-68
2023/05/24 06:30:36;;;;;;;17.60;5.20;;;13.30;99.90;;;;;;7366063;19;20019;-67
2023/05/24 06:33:02;;;;;;;21.52;6.18;;;13.20;99.90;;;;;;7366455;19;20022;-68
2023/05/24 06:35:29;;;;;;;20.05;5.20;;;13.30;99.90;;;;;;7369307;19;20022;-67
2023/05/24 06:37:56;;;;;;;21.90;6.00;;;13.30;99.90;;;;;;7364461;19;20018;-67
2023/05/24 06:40:22;;;;;;;23.70;6.32;;;13.30;99.90;;;;;;7368025;19;20052;-68
2023/05/24 06:42:49;;;;;;;21.73;4.90;;;13.30;99.90;;;;;;7366786;19;20029;-67
2023/05/24 06:45:15;;;;;;;18.52;5.10;;;13.10;99.90;;;;;;7367168;19;20014;-67
2023/05/24 06:47:41;;;;;;;19.08;5.32;;;13.10;99.90;;;;;;7362945;19;20098;-67
2023/05/24 06:50:08;;;;;;;21.08;5.00;;;12.90;99.90;;;;;;7368414;19;20022;-67
2023/05/24 06:52:35;;;;;;;22.10;5.72;;;12.80;99.90;;;;;;7364024;19;20047;-59
2023/05/24 06:55:01;;;;;;;21.02;5.60;;;12.60;99.90;;;;;;7369408;19;20051;-59
2023/05/24 06:57:27;;;;;;;22.40;5.95;;;12.80;99.90;;;;;;7367606;19;20032;-60
2023/05/24 06:59:54;;;;;;;18.85;5.00;;;13.00;99.90;;;;;;7368951;19;20019;-60
2023/05/24 07:02:25;;;;;;;19.75;5.35;;;13.40;99.90;;;;;;7364801;19;20026;-59
2023/05/24 07:04:52;;;;;;;16.85;5.50;;;13.60;99.90;;;;;;7366532;19;20038;-58
2023/05/24 07:07:19;;;;;;;21.00;6.10;;;14.00;99.90;;;;;;7364056;19;20018;-58
2023/05/24 07:09:46;;;;;;;17.10;4.97;;;14.30;99.90;;;;;;7365622;19;20018;-59
2023/05/24 07:12:12;;;;;;;18.95;5.18;;;14.20;99.90;;;;;;7365998;19;20011;-59
2023/05/24 07:14:39;;;;;;;17.85;4.70;;;13.90;99.90;;;;;;7366123;19;20038;-58
2023/05/24 07:17:05;;;;;;;24.15;9.88;;;13.90;99.90;;;;;;7366815;19;20054;-59
2023/05/24 07:19:33;;;;;;;17.83;5.78;;;13.80;99.90;;;;;;7365501;19;20111;-58
2023/05/24 07:21:59;;;;;;;16.17;4.65;;;13.90;99.90;;;;;;7366602;19;20021;-58
2023/05/24 07:24:26;;;;;;;12.73;4.28;;;13.80;99.90;;;;;;7363041;19;20019;-58
2023/05/24 07:26:52;;;;;;;16.02;4.45;;;13.90;99.90;;;;;;7363183;19;20121;-59
2023/05/24 07:29:20;;;;;;;15.82;4.93;;;14.20;99.90;;;;;;7365138;19;20026;-58
2023/05/24 07:31:47;;;;;;;18.70;5.13;;;14.90;99.90;;;;;;7365808;19;20018;-60
2023/05/24 07:34:14;;;;;;;14.05;5.95;;;15.60;99.90;;;;;;7366952;19;20052;-59
2023/05/24 07:36:41;;;;;;;16.73;5.32;;;16.20;99.90;;;;;;7363663;19;20485;-66
2023/05/24 07:39:11;;;;;;;11.02;4.68;;;16.40;99.90;;;;;;7368248;19;20010;-69
2023/05/24 07:41:38;;;;;;;14.25;5.82;;;16.30;99.90;;;;;;7365371;19;20023;-66
2023/05/24 07:44:04;;;;;;;15.68;6.75;;;16.60;99.90;;;;;;7365217;19;20030;-66
2023/05/24 07:46:31;;;;;;;11.75;4.72;;;17.10;99.90;;;;;;7365788;19;20025;-66
2023/05/24 07:48:57;;;;;;;13.73;4.32;;;17.40;99.90;;;;;;7362525;19;20750;-66
2023/05/24 07:51:24;;;;;;;9.88;3.15;;;17.40;99.90;;;;;;7364685;19;20024;-69
2023/05/24 07:53:51;;;;;;;10.27;3.42;;;17.80;95.70;;;;;;7362956;19;20064;-66
2023/05/24 07:56:18;;;;;;;9.90;2.70;;;17.50;98.70;;;;;;7363133;19;20014;-66
2023/05/24 07:58:45;;;;;;;11.65;3.63;;;16.80;99.90;;;;;;7360812;19;20018;-66
2023/05/24 08:01:12;;;;;;;12.48;3.92;;;16.60;99.90;;;;;;7367602;19;20015;-66
2023/05/24 08:03:38;;;;;;;15.38;4.75;;;16.20;99.90;;;;;;7363989;19;20026;-66
2023/05/24 08:06:05;;;;;;;15.05;4.57;;;15.70;99.90;;;;;;7364786;19;20018;-59
2023/05/24 08:08:31;;;;;;;11.77;3.63;;;15.80;99.90;;;;;;7361310;19;20021;-59
2023/05/24 08:10:57;;;;;;;18.35;8.68;;;15.70;99.90;;;;;;7362877;19;20028;-59
2023/05/24 08:13:44;;;;;;;13.75;5.05;;;15.40;99.90;;;;;;7361077;19;20038;-59
2023/05/24 08:16:30;;;;;;;13.10;4.93;;;15.00;99.90;;;;;;7365540;19;20783;-58
2023/05/24 08:18:57;;;;;;;17.02;6.63;;;15.20;99.90;;;;;;7363880;19;20026;-58
2023/05/24 08:21:23;;;;;;;18.70;5.13;;;15.00;99.90;;;;;;7362085;19;20031;-60
2023/05/24 08:23:49;;;;;;;13.13;4.30;;;15.00;99.90;;;;;;7365458;19;20023;-60
2023/05/24 08:26:18;;;;;;;9.75;3.78;;;15.10;99.90;;;;;;7360779;19;20019;-59
2023/05/24 08:28:44;;;;;;;14.32;4.13;;;15.30;99.90;;;;;;7364335;19;20022;-59
2023/05/24 08:31:10;;;;;;;13.10;3.85;;;15.40;99.90;;;;;;7367470;19;20014;-59
2023/05/24 08:33:37;;;;;;;11.65;4.05;;;15.80;99.90;;;;;;7362613;19;20039;-61
2023/05/24 08:36:03;;;;;;;16.85;5.13;;;15.90;99.90;;;;;;7361812;19;20688;-62
2023/05/24 08:38:30;;;;;;;12.73;3.78;;;16.00;99.90;;;;;;7363303;19;20086;-62
2023/05/24 08:40:56;;;;;;;10.52;4.22;;;16.10;99.90;;;;;;7365403;19;20019;-69
2023/05/24 08:43:25;;;;;;;12.27;3.90;;;16.10;99.90;;;;;;7373760;19;20025;-67
2023/05/24 08:45:53;;;;;;;16.40;4.03;;;16.20;99.90;;;;;;7370372;19;20024;-62
2023/05/24 08:48:20;;;;;;;14.35;3.60;;;16.20;99.90;;;;;;7369545;19;20100;-61
2023/05/24 08:50:47;;;;;;;13.13;3.70;;;16.20;99.90;;;;;;7366242;19;20014;-61
2023/05/24 08:53:14;;;;;;;21.60;7.65;;;15.90;99.90;;;;;;7367618;19;20015;-61
2023/05/24 08:55:42;;;;;;;14.57;4.93;;;15.90;99.90;;;;;;7371054;19;20896;-62
2023/05/24 08:58:09;;;;;;;12.95;4.40;;;16.00;99.90;;;;;;7370948;19;20014;-62
2023/05/24 09:00:35;;;;;;;13.10;3.90;;;16.20;99.90;;;;;;7373323;19;20499;-61
2023/05/24 09:03:03;;;;;;;18.52;8.02;;;16.20;99.90;;;;;;7369161;19;20023;-60
2023/05/24 09:05:31;;;;;;;22.00;14.85;;;17.00;99.90;;;;;;7369596;19;20019;-62
2023/05/24 09:08:00;;;;;;;15.25;4.68;;;17.30;99.90;;;;;;7368261;19;20057;-61
2023/05/24 09:10:27;;;;;;;14.52;3.80;;;17.50;99.90;;;;;;7366545;19;20674;-61
2023/05/24 09:12:56;;;;;;;12.52;3.40;;;18.00;99.60;;;;;;7358127;19;20054;-61
2023/05/24 09:15:23;;;;;;;10.93;4.75;;;18.70;96.10;;;;;;7366576;19;20040;-61
2023/05/24 09:17:49;;;;;;;20.92;10.88;;;18.70;93.00;;;;;;7368980;19;20017;-61
2023/05/24 09:20:15;;;;;;;11.23;3.80;;;18.30;89.00;;;;;;7368045;19;20027;-61
2023/05/24 09:22:42;;;;;;;15.88;7.10;;;18.00;93.20;;;;;;7366439;19;20015;-61
2023/05/24 09:25:12;;;;;;;21.10;11.80;;;17.90;97.10;;;;;;7370200;19;20042;-61
2023/05/24 09:27:38;;;;;;;26.02;10.07;;;17.90;99.60;;;;;;7365030;19;20059;-61
2023/05/24 09:30:11;;;;;;;10.95;3.92;;;18.00;97.60;;;;;;7364334;19;20056;-62
2023/05/24 09:32:37;;;;;;;11.60;4.22;;;18.10;94.30;;;;;;7366582;19;20066;-62
2023/05/24 09:35:08;;;;;;;20.20;10.73;;;17.90;80.90;;;;;;7366540;19;20056;-62
2023/05/24 09:37:37;;;;;;;8.80;3.70;;;17.60;84.30;;;;;;7370220;19;20863;-61
2023/05/24 09:40:05;;;;;;;10.25;3.55;;;17.70;91.10;;;;;;7368088;19;20053;-70
2023/05/24 09:42:32;;;;;;;25.67;15.70;;;17.60;92.80;;;;;;7369903;19;21032;-69
2023/05/24 09:45:02;;;;;;;13.00;6.15;;;17.30;93.80;;;;;;7363530;19;20026;-70
2023/05/24 09:47:33;;;;;;;12.93;5.35;;;17.20;91.60;;;;;;7371298;19;20019;-70
2023/05/24 09:50:01;;;;;;;17.40;10.65;;;17.10;96.40;;;;;;7369787;19;20023;-70
2023/05/24 09:52:28;;;;;;;7.75;2.83;;;17.40;95.70;;;;;;7370319;19;20035;-69
2023/05/24 09:54:55;;;;;;;6.43;2.78;;;17.10;86.80;;;;;;7365523;19;20023;-69
2023/05/24 09:57:24;;;;;;;8.45;3.63;;;17.00;82.10;;;;;;7365865;19;20014;-70
2023/05/24 09:59:51;;;;;;;11.65;6.88;;;17.10;89.50;;;;;;7368643;19;20048;-70
2023/05/24 10:02:22;;;;;;;8.60;3.38;;;17.30;90.90;;;;;;7365998;19;20331;-69
2023/05/24 10:04:58;;;;;;;6.53;3.65;;;17.30;81.70;;;;;;7367512;19;20022;-70
2023/05/24 10:07:25;;;;;;;11.73;5.47;;;18.10;83.50;;;;;;7364097;19;20146;-70
2023/05/24 10:09:52;;;;;;;8.52;3.97;;;18.40;72.30;;;;;;7366924;19;20026;-69
2023/05/24 10:12:21;;;;;;;11.98;7.72;;;18.50;74.40;;;;;;7368444;19;20040;-70
2023/05/24 10:14:50;;;;;;;10.07;5.15;;;18.70;70.80;;;;;;7368123;19;20026;-69
2023/05/24 10:17:16;;;;;;;6.45;2.80;;;19.00;71.80;;;;;;7364875;19;20486;-69
2023/05/24 10:19:43;;;;;;;7.82;3.03;;;19.40;67.00;;;;;;7369334;19;20075;-69
2023/05/24 10:22:11;;;;;;;8.73;5.35;;;19.00;68.40;;;;;;7365511;19;20030;-68
2023/05/24 10:24:44;;;;;;;8.05;3.55;;;18.60;66.80;;;;;;7363969;19;20015;-69
2023/05/24 10:27:16;;;;;;;15.35;7.45;;;18.10;65.90;;;;;;7367832;19;20026;-60
2023/05/24 10:30:10;;;;;;;6.88;2.60;;;17.90;67.40;;;;;;7368624;19;20470;-68
2023/05/24 10:32:38;;;;;;;9.25;2.70;;;18.30;70.00;;;;;;7366276;19;20042;-61
2023/05/24 10:35:06;;;;;;;7.68;3.45;;;19.40;66.80;;;;;;7367672;19;21046;-61
2023/05/24 10:37:33;;;;;;;9.88;3.42;;;19.50;62.90;;;;;;7368776;19;20101;-60
2023/05/24 10:39:59;;;;;;;10.02;5.50;;;19.60;62.60;;;;;;7365309;19;20473;-60
2023/05/24 10:42:29;;;;;;;7.50;3.05;;;19.90;64.40;;;;;;7366924;19;20018;-61
2023/05/24 10:44:56;;;;;;;9.52;3.08;;;19.60;63.20;;;;;;7363850;19;20053;-60
2023/05/24 10:47:27;;;;;;;7.50;2.55;;;19.30;60.10;;;;;;7361244;19;20463;-69
2023/05/24 10:50:03;;;;;;;46.45;41.53;;;19.00;60.00;;;;;;7364818;19;20040;-61
2023/05/24 10:52:34;;;;;;;27.77;22.25;;;18.70;60.80;;;;;;7371707;19;20388;-61
2023/05/24 10:55:03;;;;;;;19.13;13.43;;;19.20;62.90;;;;;;7365481;19;20907;-60
2023/05/24 10:57:32;;;;;;;12.68;6.43;;;19.00;63.00;;;;;;7365231;19;20018;-69
2023/05/24 11:00:24;;;;;;;15.25;7.85;;;18.70;62.70;;;;;;7367323;19;20025;-70
2023/05/24 11:03:02;;;;;;;12.30;3.92;;;18.50;64.10;;;;;;7367495;19;20018;-69
2023/05/24 11:05:50;;;;;;;12.25;4.35;;;18.00;66.50;;;;;;7365370;19;20039;-69
2023/05/24 11:08:27;;;;;;;14.05;6.45;;;18.00;68.40;;;;;;7370793;19;20670;-69
2023/05/24 11:11:15;;;;;;;13.60;7.15;;;18.00;71.10;;;;;;7364280;19;20038;-69
2023/05/24 11:13:42;;;;;;;11.57;5.60;;;18.90;71.60;;;;;;7366691;19;20110;-69
2023/05/24 11:16:29;;;;;;;13.52;5.43;;;19.70;70.60;;;;;;7363098;19;20041;-60
2023/05/24 11:18:55;;;;;;;6.43;2.78;;;19.80;66.20;;;;;;7363144;19;20802;-69
2023/05/24 11:21:22;;;;;;;10.13;4.72;;;19.50;64.00;;;;;;7364788;19;20474;-68
2023/05/24 11:23:48;;;;;;;9.50;4.32;;;19.60;63.60;;;;;;7363583;19;20022;-69
2023/05/24 11:26:15;;;;;;;11.25;4.45;;;19.00;62.50;;;;;;7358047;19;21094;-60
2023/05/24 11:28:42;;;;;;;10.85;4.10;;;18.70;63.80;;;;;;7358874;19;20023;-68
2023/05/24 11:31:08;;;;;;;9.50;2.33;;;18.80;66.10;;;;;;7365146;19;20022;-69
2023/05/24 11:33:40;;;;;;;8.68;2.90;;;19.00;64.20;;;;;;7366175;19;20025;-60
2023/05/24 11:36:06;;;;;;;;;;;18.40;64.30;;;;;;7364238;19;20021;-60
2023/05/24 11:38:35;;;;;;;8.63;2.97;;;17.80;64.30;;;;;;7365290;19;19966;-69
2023/05/24 11:41:01;;;;;;;10.10;2.53;;;17.90;67.50;;;;;;7364926;19;20058;-69
2023/05/24 11:43:30;;;;;;;12.82;6.40;;;17.70;69.50;;;;;;7361702;19;20781;-69
2023/05/24 11:45:56;;;;;;;13.05;5.22;;;18.00;71.00;;;;;;7363403;19;20663;-69
2023/05/24 11:48:23;;;;;;;10.50;3.42;;;18.10;71.50;;;;;;7360789;19;20015;-69
2023/05/24 11:50:49;;;;;;;14.55;6.90;;;18.40;72.60;;;;;;7361771;19;20804;-69
2023/05/24 11:53:19;;;;;;;11.23;3.20;;;18.50;71.00;;;;;;7363358;19;20058;-69
2023/05/24 11:55:45;;;;;;;8.70;4.00;;;18.50;70.60;;;;;;7361434;19;20025;-69
2023/05/24 11:58:23;;;;;;;10.80;3.85;;;18.60;74.40;;;;;;7360131;19;20022;-69
2023/05/24 12:00:52;;;;;;;11.45;4.88;;;18.70;70.50;;;;;;7364213;19;20807;-60
2023/05/24 12:03:18;;;;;;;17.67;10.88;;;19.70;68.30;;;;;;7362933;19;20043;-60
2023/05/24 12:05:44;;;;;;;10.05;3.70;;;19.70;67.10;;;;;;7361173;19;20068;-60
2023/05/24 12:08:31;;;;;;;12.65;3.30;;;19.50;66.50;;;;;;7363192;19;20014;-60
2023/05/24 12:10:58;;;;;;;8.63;3.38;;;19.10;66.60;;;;;;7362519;19;20985;-60
2023/05/24 12:13:25;;;;;;;9.85;3.55;;;18.60;68.80;;;;;;7363330;19;20026;-60
2023/05/24 12:15:54;;;;;;;11.05;3.22;;;18.90;71.90;;;;;;7363342;19;20078;-60
2023/05/24 12:18:21;;;;;;;14.25;5.25;;;18.70;74.20;;;;;;7378285;19;20014;-61
2023/05/24 12:20:48;;;;;;;11.52;3.90;;;18.50;77.90;;;;;;7370250;19;20028;-59
2023/05/24 12:23:16;;;;;;;19.45;12.07;;;18.40;80.00;;;;;;7374131;19;20043;-60
2023/05/24 12:25:43;;;;;;;12.82;5.78;;;17.70;83.00;;;;;;7368781;19;20060;-60
2023/05/24 12:28:09;;;;;;;15.65;3.72;;;17.40;90.00;;;;;;7369738;19;20022;-60
2023/05/24 12:30:41;;;;;;;14.07;6.65;;;17.40;91.70;;;;;;7373035;19;20024;-59
2023/05/24 12:33:09;;;;;;;20.52;12.25;;;17.30;96.10;;;;;;7373326;19;20383;-59
2023/05/24 12:35:39;;;;;;;9.45;3.40;;;17.40;98.10;;;;;;7368940;19;20074;-60
2023/05/24 12:38:09;;;;;;;17.23;10.60;;;17.30;98.20;;;;;;7371376;19;20018;-59
2023/05/24 12:40:35;;;;;;;11.75;4.95;;;17.20;99.90;;;;;;7370039;19;20121;-68
2023/05/24 12:43:03;;;;;;;16.48;8.55;;;17.20;99.90;;;;;;7369858;19;20616;-68
2023/05/24 12:45:30;;;;;;;34.67;23.60;;;16.90;99.90;;;;;;7370241;19;20021;-67
2023/05/24 12:47:59;;;;;;;21.60;13.10;;;16.90;99.90;;;;;;7368183;19;20368;-67